AFR9493 LFKB-LFPG
Flight info
| Callsign | AFR9493 |
|---|---|
| Flight time | 1h 21m |
| Altitude | 36000 |
| Route | MEGER Z911 OLETI/N0416F180 M858 OTMUV/N0423F190 Z388 IXITO/N0478F360 DCT LAGEN DCT AOSTA DCT ORSUD DCT MOLUS DCT UNKIR DCT GIVRI DCT TINIL |
| Aircraft | B77L/H-SDE1E2E3FGHIJ2J3J4J5M1RWXY/LB1D1 |
Departure
| Time | 2026-05-08 07:30 |
|---|---|
| Airport | Bastia-Poretta International airport (LFKB) |
Arrival
| Time | 2026-05-08 08:51 |
|---|---|
| Airport | Charles de Gaulle International Airport (LFPG) |
| Time | Latitude | Longitude | Altitude | Speed | Heading |
|---|---|---|---|---|---|
| 2026-05-08 06:56 | 42.54522 | 9.48302 | 39 ft | 0 kts | 283° |
| 2026-05-08 07:24 | 42.54527 | 9.48294 | 40 ft | 3 kts | 326° |
| 2026-05-08 07:24 | 42.54549 | 9.48328 | 40 ft | 7 kts | 82° |
| 2026-05-08 07:25 | 42.54567 | 9.48365 | 40 ft | 3 kts | 22° |
| 2026-05-08 07:25 | 42.54616 | 9.48368 | 40 ft | 11 kts | 353° |
| 2026-05-08 07:25 | 42.54733 | 9.48318 | 40 ft | 6 kts | 342° |
| 2026-05-08 07:26 | 42.54795 | 9.48291 | 40 ft | 13 kts | 341° |
| 2026-05-08 07:26 | 42.54904 | 9.48246 | 40 ft | 20 kts | 344° |
| 2026-05-08 07:26 | 42.55050 | 9.48208 | 40 ft | 24 kts | 342° |
| 2026-05-08 07:26 | 42.55222 | 9.48136 | 40 ft | 28 kts | 342° |
| 2026-05-08 07:27 | 42.55403 | 9.48060 | 40 ft | 25 kts | 342° |
| 2026-05-08 07:27 | 42.55559 | 9.47992 | 40 ft | 22 kts | 341° |
| 2026-05-08 07:27 | 42.55697 | 9.47937 | 40 ft | 20 kts | 343° |
| 2026-05-08 07:27 | 42.55823 | 9.47885 | 40 ft | 17 kts | 342° |
| 2026-05-08 07:28 | 42.55916 | 9.47884 | 40 ft | 11 kts | 36° |
| 2026-05-08 07:28 | 42.55946 | 9.47944 | 40 ft | 7 kts | 70° |
| 2026-05-08 07:28 | 42.55974 | 9.48050 | 40 ft | 12 kts | 71° |
| 2026-05-08 07:28 | 42.55971 | 9.48080 | 40 ft | 2 kts | 149° |
| 2026-05-08 07:29 | 42.55968 | 9.48081 | 40 ft | 0 kts | 165° |
| 2026-05-08 07:29 | 42.55867 | 9.48120 | 40 ft | 47 kts | 163° |
| 2026-05-08 07:29 | 42.55282 | 9.48367 | 40 ft | 127 kts | 162° |
| 2026-05-08 07:29 | 42.54226 | 9.48802 | 150 ft | 185 kts | 163° |
| 2026-05-08 07:30 | 42.52929 | 9.49368 | 1032 ft | 194 kts | 162° |
| 2026-05-08 07:30 | 42.51679 | 9.49983 | 2076 ft | 198 kts | 154° |
| 2026-05-08 07:30 | 42.50585 | 9.51342 | 2341 ft | 233 kts | 123° |
| 2026-05-08 07:30 | 42.50213 | 9.53517 | 2858 ft | 249 kts | 91° |
| 2026-05-08 07:31 | 42.50717 | 9.55844 | 3518 ft | 260 kts | 60° |
| 2026-05-08 07:31 | 42.52003 | 9.57542 | 4426 ft | 261 kts | 30° |
| 2026-05-08 07:31 | 42.53685 | 9.58111 | 5511 ft | 253 kts | 1° |
| 2026-05-08 07:31 | 42.55429 | 9.57511 | 6375 ft | 261 kts | 333° |
| 2026-05-08 07:32 | 42.56791 | 9.55877 | 7091 ft | 272 kts | 307° |
| 2026-05-08 07:32 | 42.57510 | 9.53466 | 7847 ft | 281 kts | 280° |
| 2026-05-08 07:32 | 42.57529 | 9.50802 | 8721 ft | 284 kts | 270° |
| 2026-05-08 07:32 | 42.57856 | 9.48133 | 9505 ft | 291 kts | 291° |
| 2026-05-08 07:33 | 42.58905 | 9.45831 | 10288 ft | 298 kts | 311° |
| 2026-05-08 07:33 | 42.60541 | 9.43966 | 10944 ft | 314 kts | 327° |
| 2026-05-08 07:33 | 42.62500 | 9.42437 | 11564 ft | 332 kts | 328° |
| 2026-05-08 07:33 | 42.64509 | 9.40700 | 12130 ft | 351 kts | 326° |
| 2026-05-08 07:34 | 42.66587 | 9.38873 | 12757 ft | 368 kts | 327° |
| 2026-05-08 07:34 | 42.68815 | 9.36962 | 13394 ft | 384 kts | 327° |
| 2026-05-08 07:34 | 42.71152 | 9.34981 | 13916 ft | 395 kts | 327° |
| 2026-05-08 07:34 | 42.72675 | 9.33697 | 13986 ft | 396 kts | 328° |
| 2026-05-08 07:35 | 42.75919 | 9.31211 | 15011 ft | 401 kts | 331° |
| 2026-05-08 07:35 | 42.77571 | 9.30036 | 15640 ft | 406 kts | 332° |
| 2026-05-08 07:35 | 42.80100 | 9.28257 | 16492 ft | 412 kts | 331° |
| 2026-05-08 07:35 | 42.82648 | 9.26410 | 17393 ft | 417 kts | 330° |
| 2026-05-08 07:36 | 42.85207 | 9.24517 | 18291 ft | 421 kts | 330° |
| 2026-05-08 07:36 | 42.87909 | 9.22841 | 19085 ft | 429 kts | 338° |
| 2026-05-08 07:36 | 42.90786 | 9.21696 | 19871 ft | 436 kts | 346° |
| 2026-05-08 07:36 | 42.93780 | 9.20956 | 20672 ft | 441 kts | 350° |
| 2026-05-08 07:37 | 42.96859 | 9.20477 | 21398 ft | 449 kts | 354° |
| 2026-05-08 07:37 | 42.99806 | 9.20242 | 22086 ft | 454 kts | 356° |
| 2026-05-08 07:37 | 43.03053 | 9.20063 | 22843 ft | 459 kts | 356° |
| 2026-05-08 07:37 | 43.06309 | 9.19837 | 23556 ft | 465 kts | 355° |
| 2026-05-08 07:38 | 43.09517 | 9.19569 | 24253 ft | 470 kts | 354° |
| 2026-05-08 07:38 | 43.12801 | 9.19295 | 24925 ft | 476 kts | 354° |
| 2026-05-08 07:38 | 43.16174 | 9.19016 | 25604 ft | 481 kts | 354° |
| 2026-05-08 07:38 | 43.19488 | 9.18742 | 26232 ft | 486 kts | 354° |
| 2026-05-08 07:39 | 43.22882 | 9.18460 | 26861 ft | 492 kts | 354° |
| 2026-05-08 07:39 | 43.26346 | 9.18171 | 27494 ft | 497 kts | 354° |
| 2026-05-08 07:39 | 43.29832 | 9.17874 | 28097 ft | 501 kts | 353° |
| 2026-05-08 07:39 | 43.33292 | 9.17311 | 28625 ft | 504 kts | 347° |
| 2026-05-08 07:40 | 43.36763 | 9.16397 | 29183 ft | 507 kts | 344° |
| 2026-05-08 07:40 | 43.40195 | 9.15293 | 29735 ft | 510 kts | 342° |
| 2026-05-08 07:40 | 43.43653 | 9.14054 | 30244 ft | 513 kts | 341° |
| 2026-05-08 07:40 | 43.47117 | 9.12796 | 30819 ft | 515 kts | 341° |
| 2026-05-08 07:41 | 43.50591 | 9.11564 | 31537 ft | 512 kts | 341° |
| 2026-05-08 07:41 | 43.53993 | 9.10385 | 32223 ft | 510 kts | 341° |
| 2026-05-08 07:41 | 43.57427 | 9.09190 | 32849 ft | 509 kts | 340° |
| 2026-05-08 07:41 | 43.60857 | 9.07988 | 33406 ft | 508 kts | 340° |
| 2026-05-08 07:42 | 43.64317 | 9.06774 | 33952 ft | 507 kts | 340° |
| 2026-05-08 07:42 | 43.67694 | 9.05586 | 34525 ft | 504 kts | 340° |
| 2026-05-08 07:42 | 43.71083 | 9.04393 | 35162 ft | 501 kts | 340° |
| 2026-05-08 07:42 | 43.74479 | 9.03198 | 35673 ft | 499 kts | 340° |
| 2026-05-08 07:43 | 43.77857 | 9.02050 | 35975 ft | 504 kts | 342° |
| 2026-05-08 07:43 | 43.84854 | 9.01111 | 35989 ft | 510 kts | 358° |
| 2026-05-08 07:44 | 43.91934 | 9.02195 | 35989 ft | 511 kts | 1° |
| 2026-05-08 07:44 | 43.99036 | 9.03060 | 35998 ft | 512 kts | 0° |
| 2026-05-08 07:45 | 44.06115 | 9.03894 | 36000 ft | 509 kts | 0° |
| 2026-05-08 07:45 | 44.13039 | 9.03613 | 36000 ft | 488 kts | 339° |
| 2026-05-08 07:45 | 44.16116 | 9.01810 | 36003 ft | 476 kts | 323° |
| 2026-05-08 07:46 | 44.18673 | 8.98979 | 36002 ft | 465 kts | 307° |
| 2026-05-08 07:46 | 44.20514 | 8.95371 | 36004 ft | 454 kts | 291° |
| 2026-05-08 07:46 | 44.21515 | 8.91290 | 36001 ft | 444 kts | 276° |
| 2026-05-08 07:46 | 44.21610 | 8.87049 | 36001 ft | 437 kts | 259° |
| 2026-05-08 07:47 | 44.20784 | 8.82997 | 36000 ft | 432 kts | 243° |
| 2026-05-08 07:47 | 44.18653 | 8.75246 | 36008 ft | 437 kts | 262° |
| 2026-05-08 07:47 | 44.18809 | 8.70979 | 36005 ft | 446 kts | 278° |
| 2026-05-08 07:48 | 44.19893 | 8.66877 | 36005 ft | 457 kts | 294° |
| 2026-05-08 07:48 | 44.21823 | 8.63301 | 36005 ft | 470 kts | 310° |
| 2026-05-08 07:48 | 44.24476 | 8.60528 | 36004 ft | 483 kts | 326° |
| 2026-05-08 07:48 | 44.27607 | 8.58823 | 36004 ft | 495 kts | 341° |
| 2026-05-08 07:49 | 44.31052 | 8.58220 | 36005 ft | 504 kts | 353° |
| 2026-05-08 07:49 | 44.34546 | 8.57711 | 36001 ft | 493 kts | 341° |
| 2026-05-08 07:49 | 44.37678 | 8.56084 | 35994 ft | 481 kts | 326° |
| 2026-05-08 07:49 | 44.40377 | 8.53341 | 36003 ft | 469 kts | 310° |
| 2026-05-08 07:50 | 44.42707 | 8.50164 | 36001 ft | 472 kts | 311° |
| 2026-05-08 07:50 | 44.47653 | 8.44040 | 36008 ft | 476 kts | 316° |
| 2026-05-08 07:51 | 44.53132 | 8.38747 | 36015 ft | 480 kts | 322° |
| 2026-05-08 07:51 | 44.58882 | 8.34051 | 36011 ft | 482 kts | 324° |
| 2026-05-08 07:52 | 44.64706 | 8.29399 | 36017 ft | 480 kts | 324° |
| 2026-05-08 07:52 | 44.70499 | 8.24735 | 36035 ft | 480 kts | 324° |
| 2026-05-08 07:53 | 44.76321 | 8.20074 | 36051 ft | 480 kts | 324° |
| 2026-05-08 07:53 | 44.82100 | 8.15403 | 36056 ft | 479 kts | 324° |
| 2026-05-08 07:54 | 44.87881 | 8.10708 | 36056 ft | 478 kts | 324° |
| 2026-05-08 07:54 | 44.93633 | 8.06021 | 36056 ft | 477 kts | 324° |
| 2026-05-08 07:55 | 44.99386 | 8.01320 | 36057 ft | 476 kts | 324° |
| 2026-05-08 07:55 | 45.05119 | 7.96625 | 36060 ft | 477 kts | 324° |
| 2026-05-08 07:56 | 45.10861 | 7.91911 | 36063 ft | 477 kts | 324° |
| 2026-05-08 07:56 | 45.16565 | 7.87217 | 36067 ft | 476 kts | 324° |
| 2026-05-08 07:57 | 45.22300 | 7.82487 | 36073 ft | 475 kts | 324° |
| 2026-05-08 07:57 | 45.28001 | 7.77774 | 36083 ft | 475 kts | 325° |
| 2026-05-08 07:58 | 45.33718 | 7.73035 | 36084 ft | 475 kts | 325° |
| 2026-05-08 07:58 | 45.39419 | 7.68301 | 36081 ft | 474 kts | 325° |
| 2026-05-08 07:59 | 45.45071 | 7.63594 | 36086 ft | 473 kts | 325° |
| 2026-05-08 07:59 | 45.50781 | 7.58828 | 36092 ft | 473 kts | 325° |
| 2026-05-08 08:00 | 45.56470 | 7.54108 | 36100 ft | 473 kts | 325° |
| 2026-05-08 08:00 | 45.62110 | 7.49376 | 36106 ft | 473 kts | 324° |
| 2026-05-08 08:01 | 45.67786 | 7.44590 | 36110 ft | 473 kts | 324° |
| 2026-05-08 08:01 | 45.73448 | 7.39805 | 36112 ft | 473 kts | 324° |
| 2026-05-08 08:02 | 45.79123 | 7.35007 | 36112 ft | 473 kts | 324° |
| 2026-05-08 08:02 | 45.84565 | 7.29811 | 36110 ft | 469 kts | 319° |
| 2026-05-08 08:03 | 45.89836 | 7.24252 | 36106 ft | 470 kts | 320° |
| 2026-05-08 08:03 | 45.95154 | 7.18860 | 36099 ft | 470 kts | 320° |
| 2026-05-08 08:04 | 46.00486 | 7.13400 | 36093 ft | 470 kts | 320° |
| 2026-05-08 08:04 | 46.05814 | 7.07910 | 36088 ft | 469 kts | 320° |
| 2026-05-08 08:05 | 46.11121 | 7.02430 | 36086 ft | 469 kts | 320° |
| 2026-05-08 08:05 | 46.16412 | 6.96956 | 36085 ft | 470 kts | 320° |
| 2026-05-08 08:06 | 46.21780 | 6.91470 | 36083 ft | 471 kts | 321° |
| 2026-05-08 08:06 | 46.27119 | 6.85963 | 36080 ft | 470 kts | 320° |
| 2026-05-08 08:07 | 46.32435 | 6.80420 | 36080 ft | 471 kts | 320° |
| 2026-05-08 08:07 | 46.37753 | 6.74860 | 36082 ft | 471 kts | 320° |
| 2026-05-08 08:08 | 46.42946 | 6.69181 | 36086 ft | 466 kts | 314° |
| 2026-05-08 08:08 | 46.47070 | 6.61997 | 36082 ft | 460 kts | 298° |
| 2026-05-08 08:09 | 46.50157 | 6.53914 | 36081 ft | 458 kts | 294° |
| 2026-05-08 08:09 | 46.53191 | 6.45734 | 36080 ft | 459 kts | 295° |
| 2026-05-08 08:10 | 46.56320 | 6.37641 | 36080 ft | 459 kts | 296° |
| 2026-05-08 08:10 | 46.59462 | 6.29581 | 36080 ft | 459 kts | 296° |
| 2026-05-08 08:11 | 46.62653 | 6.21454 | 36072 ft | 460 kts | 297° |
| 2026-05-08 08:11 | 46.65320 | 6.14737 | 36071 ft | 460 kts | 296° |
| 2026-05-08 08:12 | 46.68523 | 6.06669 | 36066 ft | 460 kts | 296° |
| 2026-05-08 08:12 | 46.71676 | 5.98544 | 36065 ft | 460 kts | 296° |
| 2026-05-08 08:13 | 46.74814 | 5.90388 | 36063 ft | 463 kts | 296° |
| 2026-05-08 08:13 | 46.77945 | 5.82230 | 36061 ft | 463 kts | 296° |
| 2026-05-08 08:14 | 46.81339 | 5.74210 | 36060 ft | 468 kts | 306° |
| 2026-05-08 08:14 | 46.86340 | 5.67997 | 36060 ft | 479 kts | 326° |
| 2026-05-08 08:15 | 46.92351 | 5.63700 | 36058 ft | 481 kts | 330° |
| 2026-05-08 08:15 | 46.98315 | 5.59277 | 36055 ft | 480 kts | 328° |
| 2026-05-08 08:16 | 47.04195 | 5.54568 | 36053 ft | 479 kts | 327° |
| 2026-05-08 08:16 | 47.10057 | 5.49822 | 36053 ft | 480 kts | 327° |
| 2026-05-08 08:17 | 47.15901 | 5.45064 | 36053 ft | 480 kts | 327° |
| 2026-05-08 08:17 | 47.21690 | 5.40339 | 36054 ft | 480 kts | 327° |
| 2026-05-08 08:18 | 47.27514 | 5.35582 | 36054 ft | 479 kts | 327° |
| 2026-05-08 08:18 | 47.33395 | 5.30807 | 35965 ft | 479 kts | 327° |
| 2026-05-08 08:18 | 47.36238 | 5.28357 | 35822 ft | 478 kts | 325° |
| 2026-05-08 08:19 | 47.39062 | 5.25769 | 35633 ft | 478 kts | 324° |
| 2026-05-08 08:19 | 47.41849 | 5.23110 | 35408 ft | 478 kts | 323° |
| 2026-05-08 08:19 | 47.44639 | 5.20372 | 35193 ft | 477 kts | 322° |
| 2026-05-08 08:19 | 47.47387 | 5.17625 | 34967 ft | 478 kts | 322° |
| 2026-05-08 08:20 | 47.50156 | 5.14893 | 34741 ft | 478 kts | 322° |
| 2026-05-08 08:20 | 47.52883 | 5.12182 | 34518 ft | 478 kts | 322° |
| 2026-05-08 08:20 | 47.55671 | 5.09394 | 34290 ft | 478 kts | 322° |
| 2026-05-08 08:20 | 47.58411 | 5.06645 | 34066 ft | 478 kts | 322° |
| 2026-05-08 08:21 | 47.61174 | 5.03813 | 33826 ft | 477 kts | 321° |
| 2026-05-08 08:21 | 47.63890 | 5.00968 | 33576 ft | 480 kts | 322° |
| 2026-05-08 08:21 | 47.66654 | 4.98192 | 33326 ft | 481 kts | 323° |
| 2026-05-08 08:21 | 47.69423 | 4.95482 | 33077 ft | 481 kts | 323° |
| 2026-05-08 08:22 | 47.72249 | 4.92705 | 32823 ft | 481 kts | 323° |
| 2026-05-08 08:22 | 47.74944 | 4.89858 | 32491 ft | 479 kts | 319° |
| 2026-05-08 08:22 | 47.77584 | 4.86723 | 32098 ft | 479 kts | 317° |
| 2026-05-08 08:22 | 47.80084 | 4.83525 | 31682 ft | 480 kts | 315° |
| 2026-05-08 08:23 | 47.82572 | 4.80223 | 31266 ft | 481 kts | 315° |
| 2026-05-08 08:23 | 47.85105 | 4.76872 | 30792 ft | 478 kts | 316° |
| 2026-05-08 08:23 | 47.87601 | 4.73619 | 30119 ft | 474 kts | 316° |
| 2026-05-08 08:23 | 47.90061 | 4.70446 | 29438 ft | 472 kts | 316° |
| 2026-05-08 08:24 | 47.92540 | 4.67261 | 28749 ft | 470 kts | 316° |
| 2026-05-08 08:24 | 47.95010 | 4.64090 | 28106 ft | 467 kts | 316° |
| 2026-05-08 08:24 | 47.97460 | 4.60942 | 27485 ft | 463 kts | 317° |
| 2026-05-08 08:24 | 47.99926 | 4.57775 | 26884 ft | 460 kts | 317° |
| 2026-05-08 08:25 | 48.02328 | 4.54741 | 26334 ft | 456 kts | 317° |
| 2026-05-08 08:25 | 48.04750 | 4.51709 | 25746 ft | 453 kts | 317° |
| 2026-05-08 08:25 | 48.07177 | 4.48621 | 25144 ft | 450 kts | 317° |
| 2026-05-08 08:25 | 48.09515 | 4.45611 | 24571 ft | 447 kts | 317° |
| 2026-05-08 08:26 | 48.11859 | 4.42577 | 24024 ft | 444 kts | 317° |
| 2026-05-08 08:26 | 48.14188 | 4.39556 | 23499 ft | 441 kts | 317° |
| 2026-05-08 08:26 | 48.16495 | 4.36561 | 22991 ft | 437 kts | 317° |
| 2026-05-08 08:26 | 48.18794 | 4.33573 | 22474 ft | 434 kts | 317° |
| 2026-05-08 08:27 | 48.21069 | 4.30616 | 21992 ft | 431 kts | 317° |
| 2026-05-08 08:27 | 48.23321 | 4.27687 | 21515 ft | 428 kts | 317° |
| 2026-05-08 08:27 | 48.25525 | 4.24714 | 21041 ft | 424 kts | 314° |
| 2026-05-08 08:27 | 48.27560 | 4.21552 | 20582 ft | 420 kts | 310° |
| 2026-05-08 08:28 | 48.29470 | 4.18182 | 20128 ft | 416 kts | 307° |
| 2026-05-08 08:28 | 48.31235 | 4.14838 | 19692 ft | 413 kts | 306° |
| 2026-05-08 08:28 | 48.33068 | 4.11427 | 19244 ft | 410 kts | 307° |
| 2026-05-08 08:28 | 48.34853 | 4.08173 | 18823 ft | 408 kts | 308° |
| 2026-05-08 08:29 | 48.36675 | 4.04920 | 18416 ft | 405 kts | 307° |
| 2026-05-08 08:29 | 48.38464 | 4.01672 | 18032 ft | 402 kts | 307° |
| 2026-05-08 08:29 | 48.40233 | 3.98430 | 17613 ft | 400 kts | 307° |
| 2026-05-08 08:29 | 48.42010 | 3.95158 | 17191 ft | 399 kts | 307° |
| 2026-05-08 08:30 | 48.43764 | 3.91921 | 16778 ft | 397 kts | 307° |
| 2026-05-08 08:30 | 48.45507 | 3.88702 | 16404 ft | 395 kts | 307° |
| 2026-05-08 08:30 | 48.48956 | 3.82325 | 15695 ft | 390 kts | 307° |
| 2026-05-08 08:31 | 48.50667 | 3.79159 | 15329 ft | 389 kts | 307° |
| 2026-05-08 08:31 | 48.52376 | 3.76000 | 14984 ft | 387 kts | 307° |
| 2026-05-08 08:31 | 48.54040 | 3.72846 | 14644 ft | 384 kts | 305° |
| 2026-05-08 08:31 | 48.55565 | 3.69546 | 14309 ft | 382 kts | 301° |
| 2026-05-08 08:32 | 48.56975 | 3.66169 | 13970 ft | 380 kts | 300° |
| 2026-05-08 08:32 | 48.58376 | 3.62790 | 13641 ft | 378 kts | 301° |
| 2026-05-08 08:32 | 48.59797 | 3.59455 | 13420 ft | 375 kts | 301° |
| 2026-05-08 08:32 | 48.61215 | 3.56156 | 13415 ft | 375 kts | 301° |
| 2026-05-08 08:33 | 48.62640 | 3.52830 | 13415 ft | 377 kts | 301° |
| 2026-05-08 08:33 | 48.64066 | 3.49487 | 13417 ft | 377 kts | 301° |
| 2026-05-08 08:33 | 48.65484 | 3.46158 | 13418 ft | 377 kts | 301° |
| 2026-05-08 08:33 | 48.66901 | 3.42828 | 13417 ft | 377 kts | 301° |
| 2026-05-08 08:34 | 48.68336 | 3.39528 | 13419 ft | 377 kts | 302° |
| 2026-05-08 08:34 | 48.69790 | 3.36187 | 13417 ft | 377 kts | 301° |
| 2026-05-08 08:34 | 48.71215 | 3.32864 | 13417 ft | 377 kts | 301° |
| 2026-05-08 08:34 | 48.72639 | 3.29509 | 13419 ft | 377 kts | 301° |
| 2026-05-08 08:35 | 48.74048 | 3.26173 | 13417 ft | 377 kts | 301° |
| 2026-05-08 08:35 | 48.75460 | 3.22823 | 13418 ft | 377 kts | 301° |
| 2026-05-08 08:35 | 48.76563 | 3.20201 | 13418 ft | 377 kts | 301° |
| 2026-05-08 08:35 | 48.77972 | 3.16850 | 13419 ft | 377 kts | 301° |
| 2026-05-08 08:36 | 48.79380 | 3.13498 | 13346 ft | 376 kts | 301° |
| 2026-05-08 08:36 | 48.80768 | 3.10192 | 13320 ft | 375 kts | 301° |
| 2026-05-08 08:36 | 48.82184 | 3.06820 | 13319 ft | 376 kts | 301° |
| 2026-05-08 08:36 | 48.83603 | 3.03461 | 13270 ft | 376 kts | 302° |
| 2026-05-08 08:37 | 48.85156 | 3.00259 | 12797 ft | 381 kts | 307° |
| 2026-05-08 08:37 | 48.85816 | 2.99072 | 12558 ft | 382 kts | 309° |
| 2026-05-08 08:37 | 48.87447 | 2.96267 | 12091 ft | 380 kts | 310° |
| 2026-05-08 08:37 | 48.89249 | 2.93369 | 11753 ft | 372 kts | 312° |
| 2026-05-08 08:38 | 48.90963 | 2.90531 | 11569 ft | 359 kts | 308° |
| 2026-05-08 08:38 | 48.92379 | 2.87535 | 11363 ft | 337 kts | 300° |
| 2026-05-08 08:38 | 48.93325 | 2.84432 | 11177 ft | 312 kts | 287° |
| 2026-05-08 08:38 | 48.93736 | 2.81316 | 11007 ft | 291 kts | 275° |
| 2026-05-08 08:39 | 48.93786 | 2.79429 | 10920 ft | 288 kts | 269° |
| 2026-05-08 08:39 | 48.93645 | 2.75992 | 10737 ft | 285 kts | 264° |
| 2026-05-08 08:39 | 48.93429 | 2.73003 | 10583 ft | 285 kts | 262° |
| 2026-05-08 08:39 | 48.93172 | 2.70024 | 10430 ft | 285 kts | 261° |
| 2026-05-08 08:40 | 48.92893 | 2.67045 | 10280 ft | 284 kts | 261° |
| 2026-05-08 08:40 | 48.92655 | 2.64056 | 10135 ft | 284 kts | 263° |
| 2026-05-08 08:40 | 48.92462 | 2.61062 | 9864 ft | 286 kts | 264° |
| 2026-05-08 08:40 | 48.92296 | 2.58036 | 9554 ft | 285 kts | 264° |
| 2026-05-08 08:41 | 48.92137 | 2.55065 | 9256 ft | 284 kts | 264° |
| 2026-05-08 08:41 | 48.91973 | 2.52085 | 8958 ft | 283 kts | 264° |
| 2026-05-08 08:41 | 48.91806 | 2.49062 | 8649 ft | 283 kts | 264° |
| 2026-05-08 08:41 | 48.91663 | 2.46493 | 8383 ft | 282 kts | 264° |
| 2026-05-08 08:42 | 48.91512 | 2.43527 | 8082 ft | 281 kts | 265° |
| 2026-05-08 08:42 | 48.91357 | 2.40573 | 7789 ft | 280 kts | 265° |
| 2026-05-08 08:42 | 48.91194 | 2.37589 | 7487 ft | 280 kts | 264° |
| 2026-05-08 08:42 | 48.91027 | 2.34644 | 7184 ft | 279 kts | 264° |
| 2026-05-08 08:43 | 48.90858 | 2.31711 | 6918 ft | 277 kts | 264° |
| 2026-05-08 08:43 | 48.90691 | 2.28847 | 6780 ft | 273 kts | 264° |
| 2026-05-08 08:43 | 48.90521 | 2.25931 | 6623 ft | 273 kts | 264° |
| 2026-05-08 08:43 | 48.90355 | 2.23102 | 6465 ft | 273 kts | 264° |
| 2026-05-08 08:44 | 48.90186 | 2.20230 | 6349 ft | 272 kts | 264° |
| 2026-05-08 08:44 | 48.90057 | 2.17412 | 6224 ft | 263 kts | 270° |
| 2026-05-08 08:44 | 48.90528 | 2.14823 | 6180 ft | 252 kts | 298° |
| 2026-05-08 08:44 | 48.91275 | 2.13490 | 6201 ft | 247 kts | 317° |
| 2026-05-08 08:45 | 48.92801 | 2.12432 | 6228 ft | 242 kts | 348° |
| 2026-05-08 08:45 | 48.94437 | 2.12733 | 6226 ft | 236 kts | 20° |
| 2026-05-08 08:45 | 48.95733 | 2.14225 | 6243 ft | 230 kts | 48° |
| 2026-05-08 08:45 | 48.96511 | 2.16306 | 6268 ft | 226 kts | 67° |
| 2026-05-08 08:46 | 48.96938 | 2.18567 | 6180 ft | 227 kts | 76° |
| 2026-05-08 08:46 | 48.97263 | 2.20965 | 5858 ft | 233 kts | 80° |
| 2026-05-08 08:46 | 48.97500 | 2.23425 | 5436 ft | 232 kts | 83° |
| 2026-05-08 08:46 | 48.97660 | 2.25911 | 5054 ft | 226 kts | 85° |
| 2026-05-08 08:47 | 48.97778 | 2.28141 | 4872 ft | 212 kts | 86° |
| 2026-05-08 08:47 | 48.97894 | 2.30353 | 4471 ft | 211 kts | 86° |
| 2026-05-08 08:47 | 48.98014 | 2.32600 | 3995 ft | 216 kts | 86° |
| 2026-05-08 08:47 | 48.98137 | 2.34918 | 3509 ft | 222 kts | 86° |
| 2026-05-08 08:48 | 48.98263 | 2.37285 | 3004 ft | 227 kts | 86° |
| 2026-05-08 08:48 | 48.98392 | 2.39688 | 2565 ft | 228 kts | 86° |
| 2026-05-08 08:48 | 48.98520 | 2.42078 | 2251 ft | 223 kts | 86° |
| 2026-05-08 08:48 | 48.98643 | 2.44383 | 1974 ft | 210 kts | 85° |
| 2026-05-08 08:49 | 48.98756 | 2.46492 | 1680 ft | 189 kts | 85° |
| 2026-05-08 08:49 | 48.98856 | 2.48374 | 1450 ft | 164 kts | 85° |
| 2026-05-08 08:49 | 48.98944 | 2.50012 | 1241 ft | 153 kts | 84° |
| 2026-05-08 08:49 | 48.99028 | 2.51588 | 1040 ft | 146 kts | 84° |
| 2026-05-08 08:50 | 48.99093 | 2.52796 | 890 ft | 142 kts | 84° |
| 2026-05-08 08:50 | 48.99179 | 2.54342 | 670 ft | 134 kts | 84° |
| 2026-05-08 08:50 | 48.99252 | 2.55695 | 513 ft | 129 kts | 84° |
| 2026-05-08 08:50 | 48.99325 | 2.57092 | 431 ft | 133 kts | 84° |
| 2026-05-08 08:51 | 48.99394 | 2.58319 | 406 ft | 85 kts | 86° |
| 2026-05-08 08:51 | 48.99423 | 2.58951 | 406 ft | 49 kts | 84° |
| 2026-05-08 08:51 | 48.99515 | 2.59383 | 406 ft | 38 kts | 64° |
| 2026-05-08 08:51 | 48.99597 | 2.59645 | 406 ft | 17 kts | 52° |
| 2026-05-08 08:52 | 48.99664 | 2.59676 | 406 ft | 7 kts | 353° |
| 2026-05-08 08:52 | 48.99722 | 2.59667 | 406 ft | 13 kts | 354° |
| 2026-05-08 08:52 | 48.99845 | 2.59649 | 406 ft | 20 kts | 356° |
| 2026-05-08 08:52 | 48.99981 | 2.59636 | 406 ft | 21 kts | 357° |
| 2026-05-08 08:53 | 49.00095 | 2.59545 | 406 ft | 15 kts | 282° |
| 2026-05-08 08:53 | 49.00072 | 2.59398 | 406 ft | 20 kts | 261° |
| 2026-05-08 08:53 | 49.00059 | 2.59169 | 406 ft | 22 kts | 266° |
| 2026-05-08 08:53 | 49.00049 | 2.58997 | 406 ft | 22 kts | 265° |
| 2026-05-08 08:54 | 49.00035 | 2.58750 | 406 ft | 25 kts | 266° |
| 2026-05-08 08:54 | 49.00022 | 2.58471 | 406 ft | 27 kts | 265° |
| 2026-05-08 08:54 | 49.00007 | 2.58204 | 406 ft | 23 kts | 266° |
| 2026-05-08 08:54 | 48.99996 | 2.57986 | 406 ft | 19 kts | 264° |
| 2026-05-08 08:55 | 48.99986 | 2.57810 | 406 ft | 15 kts | 266° |
| 2026-05-08 08:55 | 48.99975 | 2.57585 | 406 ft | 26 kts | 266° |
| 2026-05-08 08:55 | 48.99959 | 2.57276 | 406 ft | 32 kts | 266° |
| 2026-05-08 08:55 | 48.99941 | 2.56918 | 406 ft | 36 kts | 265° |
| 2026-05-08 08:56 | 48.99917 | 2.56526 | 406 ft | 37 kts | 266° |
| 2026-05-08 08:56 | 48.99898 | 2.56160 | 406 ft | 32 kts | 265° |
| 2026-05-08 08:56 | 48.99906 | 2.55852 | 406 ft | 26 kts | 285° |
| 2026-05-08 08:56 | 48.99974 | 2.55626 | 406 ft | 21 kts | 291° |
| 2026-05-08 08:57 | 48.99984 | 2.55437 | 406 ft | 16 kts | 267° |
| 2026-05-08 08:57 | 48.99974 | 2.55226 | 406 ft | 25 kts | 265° |
| 2026-05-08 08:57 | 48.99958 | 2.54921 | 406 ft | 32 kts | 264° |
| 2026-05-08 08:57 | 48.99940 | 2.54600 | 406 ft | 28 kts | 265° |
| 2026-05-08 08:58 | 48.99925 | 2.54328 | 406 ft | 24 kts | 265° |
| 2026-05-08 08:58 | 48.99923 | 2.54235 | 406 ft | 3 kts | 286° |
| 2026-05-08 08:58 | 48.99943 | 2.54196 | 406 ft | 3 kts | 347° |
| 2026-05-08 08:58 | 48.99951 | 2.54198 | 406 ft | 1 kts | 11° |
| 2026-05-08 08:59 | 48.99972 | 2.54195 | 406 ft | 4 kts | 352° |
| 2026-05-08 08:59 | 49.00002 | 2.54190 | 406 ft | 0 kts | 355° |